createdAt,value
2017-04-16T00:00:05.544Z,62.34
2017-04-16T00:00:46.146Z,62.91
2017-04-16T00:01:26.768Z,62.78
2017-04-16T00:02:07.405Z,63.01
2017-04-16T00:02:48.037Z,63.2
2017-04-16T00:03:28.653Z,63.57
2017-04-16T00:04:09.240Z,63.86
2017-04-16T00:04:49.829Z,63.57
2017-04-16T00:05:30.444Z,63.48
2017-04-16T00:06:11.047Z,63.2
2017-04-16T00:06:51.681Z,63.2
2017-04-16T00:07:32.285Z,63.1
2017-04-16T00:08:12.878Z,62.72
2017-04-16T00:08:53.480Z,63.39
2017-04-16T00:09:34.094Z,63.2
2017-04-16T00:10:14.685Z,63.29
2017-04-16T00:10:55.298Z,63.29
2017-04-16T00:11:35.890Z,63.57
2017-04-16T00:12:16.496Z,63.67
2017-04-16T00:12:57.146Z,63.67
2017-04-16T00:13:37.766Z,63.39
2017-04-16T00:14:18.332Z,63.45
2017-04-16T00:14:58.926Z,63.48
2017-04-16T00:15:39.503Z,63.76
2017-04-16T00:16:20.132Z,64.21
2017-04-16T00:17:00.721Z,63.54
2017-04-16T00:17:41.324Z,64.3
2017-04-16T00:18:21.943Z,64.21
2017-04-16T00:19:02.519Z,63.92
2017-04-16T00:19:43.111Z,64.21
2017-04-16T00:20:23.697Z,64.4
2017-04-16T00:21:04.275Z,64.3
2017-04-16T00:21:44.849Z,64.4
2017-04-16T00:22:25.428Z,64.3
2017-04-16T00:23:06.053Z,64.21
2017-04-16T00:23:46.583Z,64.21
2017-04-16T00:24:27.164Z,64.49
2017-04-16T00:25:07.764Z,64.3
2017-04-16T00:25:48.354Z,64.3
2017-04-16T00:26:28.927Z,63.83
2017-04-16T00:27:09.539Z,64.21
2017-04-16T00:27:50.112Z,64.3
2017-04-16T00:28:30.689Z,64.21
2017-04-16T00:29:11.292Z,64.3
2017-04-16T00:29:51.877Z,64.49
2017-04-16T00:30:32.456Z,64.69
2017-04-16T00:31:13.042Z,64.49
2017-04-16T00:31:53.626Z,64.49
2017-04-16T00:32:34.241Z,64.97
2017-04-16T00:33:14.832Z,64.78
2017-04-16T00:33:55.450Z,64.78
2017-04-16T00:34:36.068Z,64.97
2017-04-16T00:35:16.653Z,64.49
2017-04-16T00:35:57.234Z,64.3
2017-04-16T00:36:37.818Z,64.4
2017-04-16T00:37:18.407Z,64.21
2017-04-16T00:37:58.993Z,64.49
2017-04-16T00:38:39.581Z,64.49
2017-04-16T00:39:20.161Z,64.4
2017-04-16T00:40:00.756Z,65.06
2017-04-16T00:40:41.379Z,64.69
2017-04-16T00:41:22.041Z,64.87
2017-04-16T00:42:02.610Z,64.49
2017-04-16T00:42:43.197Z,64.49
2017-04-16T00:43:23.793Z,64.4
2017-04-16T00:44:04.428Z,63.92
2017-04-16T00:44:45.021Z,64.3
2017-04-16T00:45:25.621Z,64.3
2017-04-16T00:46:06.214Z,64.4
2017-04-16T00:46:46.834Z,64.3
2017-04-16T00:47:27.409Z,64.4
2017-04-16T00:48:08.014Z,64.69
2017-04-16T00:48:48.617Z,64.97
2017-04-16T00:49:29.194Z,64.69
2017-04-16T00:50:09.799Z,65.16
2017-04-16T00:50:50.465Z,64.97
2017-04-16T00:51:31.101Z,65.44
2017-04-16T00:52:11.673Z,65.44
2017-04-16T00:52:52.273Z,65.54
2017-04-16T00:53:32.871Z,65.44
2017-04-16T00:54:13.457Z,65.44
2017-04-16T00:54:54.034Z,65.82
2017-04-16T00:55:34.638Z,65.44
2017-04-16T00:56:15.231Z,65.54
2017-04-16T00:56:55.862Z,65.54
2017-04-16T00:57:36.470Z,65.92
2017-04-16T00:58:17.060Z,65.44
2017-04-16T00:58:57.672Z,65.82
2017-04-16T00:59:38.234Z,65.35
2017-04-16T01:00:18.858Z,65.44
2017-04-16T01:00:59.511Z,65.54
2017-04-16T01:01:40.113Z,65.73
2017-04-16T01:02:20.693Z,66.01
2017-04-16T01:03:01.303Z,65.73
2017-04-16T01:03:41.886Z,65.82
2017-04-16T01:04:22.507Z,65.92
2017-04-16T01:05:03.139Z,65.54
2017-04-16T01:05:43.737Z,66.01
2017-04-16T01:06:24.393Z,65.82
2017-04-16T01:07:05.012Z,65.92
2017-04-16T01:07:45.657Z,65.82
2017-04-16T01:08:26.242Z,65.82
2017-04-16T01:09:06.892Z,66.01
2017-04-16T01:09:47.506Z,65.44
2017-04-16T01:10:28.185Z,65.44
2017-04-16T01:11:08.771Z,65.35
2017-04-16T01:11:49.371Z,65.35
2017-04-16T01:12:29.954Z,65.63
2017-04-16T01:13:10.532Z,65.54
2017-04-16T01:13:51.150Z,65.44
2017-04-16T01:14:31.710Z,65.35
2017-04-16T01:15:12.320Z,65.44
2017-04-16T01:15:52.922Z,65.63
2017-04-16T01:16:33.494Z,65.63
2017-04-16T01:17:14.078Z,65.82
2017-04-16T01:17:54.664Z,65.73
2017-04-16T01:18:35.273Z,65.54
2017-04-16T01:19:15.852Z,65.73
2017-04-16T01:19:56.455Z,65.92
2017-04-16T01:20:37.057Z,66.01
2017-04-16T01:21:17.646Z,65.82
2017-04-16T01:21:58.215Z,65.73
2017-04-16T01:22:38.798Z,65.63
2017-04-16T01:23:19.373Z,65.35
2017-04-16T01:23:59.950Z,65.25
2017-04-16T01:24:40.535Z,65.06
2017-04-16T01:25:21.104Z,65.35
2017-04-16T01:26:01.689Z,65.44
2017-04-16T01:26:42.278Z,65.25
2017-04-16T01:27:22.859Z,65.54
2017-04-16T01:28:03.467Z,65.35
2017-04-16T01:28:44.056Z,65.63
2017-04-16T01:29:24.649Z,65.73
2017-04-16T01:30:05.285Z,65.73
2017-04-16T01:30:45.865Z,65.44
2017-04-16T01:31:26.431Z,65.63
2017-04-16T01:32:07.070Z,65.54
2017-04-16T01:32:47.640Z,65.06
2017-04-16T01:33:28.247Z,65.44
2017-04-16T01:34:08.831Z,65.73
2017-04-16T01:34:49.410Z,65.54
2017-04-16T01:35:30.039Z,65.82
2017-04-16T01:36:10.748Z,65.63
2017-04-16T01:36:51.335Z,65.92
2017-04-16T01:37:31.943Z,65.92
2017-04-16T01:38:12.554Z,65.82
2017-04-16T01:38:53.158Z,65.73
2017-04-16T01:39:33.756Z,65.54
2017-04-16T01:40:14.346Z,65.16
2017-04-16T01:40:54.978Z,64.59
2017-04-16T01:41:35.589Z,64.69
2017-04-16T01:42:16.168Z,64.78
2017-04-16T01:42:56.775Z,64.87
2017-04-16T01:43:37.379Z,64.78
2017-04-16T01:44:17.975Z,64.49
2017-04-16T01:44:58.560Z,65.16
2017-04-16T01:45:39.164Z,64.78
2017-04-16T01:46:19.780Z,64.78
2017-04-16T01:47:00.376Z,64.69
2017-04-16T01:47:41.002Z,65.06
2017-04-16T01:48:21.640Z,65.44
2017-04-16T01:49:02.250Z,65.44
2017-04-16T01:49:42.842Z,65.63
2017-04-16T01:50:23.445Z,65.44
2017-04-16T01:51:04.047Z,66.01
2017-04-16T01:51:44.654Z,65.63
2017-04-16T01:52:25.245Z,65.44
2017-04-16T01:53:05.856Z,65.44
2017-04-16T01:53:46.441Z,65.44
2017-04-16T01:54:27.055Z,65.54
2017-04-16T01:55:07.661Z,65.35
2017-04-16T01:55:48.311Z,65.54
2017-04-16T01:56:28.924Z,65.82
2017-04-16T01:57:09.504Z,65.82
2017-04-16T01:57:50.116Z,65.73
2017-04-16T01:58:30.709Z,65.92
2017-04-16T01:59:11.384Z,66.01
2017-04-16T01:59:51.987Z,65.82
2017-04-16T02:00:32.565Z,65.54
2017-04-16T02:01:13.188Z,65.44
2017-04-16T02:01:53.773Z,65.44
2017-04-16T02:02:34.386Z,65.73
2017-04-16T02:03:15.015Z,65.82
2017-04-16T02:03:55.612Z,65.82
2017-04-16T02:04:36.199Z,65.73
2017-04-16T02:05:16.792Z,65.82
2017-04-16T02:05:57.335Z,65.44
2017-04-16T02:06:37.939Z,65.44
2017-04-16T02:07:18.596Z,65.35
2017-04-16T02:07:59.192Z,65.06
2017-04-16T02:08:39.792Z,65.25
2017-04-16T02:09:20.390Z,65.25
2017-04-16T02:10:00.960Z,65.16
2017-04-16T02:10:41.551Z,65.16
2017-04-16T02:11:22.138Z,65.54
2017-04-16T02:12:02.747Z,65.54
2017-04-16T02:12:43.316Z,65.06
2017-04-16T02:13:23.900Z,64.97
2017-04-16T02:14:04.495Z,65.16
2017-04-16T02:14:45.125Z,65.35
2017-04-16T02:15:25.717Z,65.44
2017-04-16T02:16:06.296Z,65.25
2017-04-16T02:16:46.882Z,65.35
2017-04-16T02:17:27.469Z,65.44
2017-04-16T02:18:08.054Z,65.44
2017-04-16T02:18:48.656Z,65.54
2017-04-16T02:19:29.243Z,65.73
2017-04-16T02:20:09.843Z,65.54
2017-04-16T02:20:50.445Z,65.82
2017-04-16T02:21:31.053Z,65.54
2017-04-16T02:22:11.640Z,65.92
2017-04-16T02:22:52.269Z,65.54
2017-04-16T02:23:32.875Z,65.63
2017-04-16T02:24:13.466Z,65.54
2017-04-16T02:24:54.104Z,66.01
2017-04-16T02:25:34.674Z,66.01
2017-04-16T02:26:15.266Z,65.82
2017-04-16T02:26:55.875Z,66.01
2017-04-16T02:27:36.497Z,65.82
2017-04-16T02:28:17.083Z,65.92
2017-04-16T02:28:57.684Z,65.92
2017-04-16T02:29:38.284Z,65.63
2017-04-16T02:30:18.896Z,65.73
2017-04-16T02:30:59.484Z,65.54
2017-04-16T02:31:40.069Z,65.54
2017-04-16T02:32:20.656Z,66.01
2017-04-16T02:33:01.261Z,66.01
2017-04-16T02:33:41.862Z,65.63
2017-04-16T02:34:22.448Z,65.44
2017-04-16T02:35:03.076Z,66.01
2017-04-16T02:35:43.672Z,66.2
2017-04-16T02:36:24.256Z,66.2
2017-04-16T02:37:04.840Z,66.11
2017-04-16T02:37:45.455Z,66.2
2017-04-16T02:38:25.993Z,66.3
2017-04-16T02:39:06.585Z,66.2
2017-04-16T02:39:47.172Z,66.11
2017-04-16T02:40:27.755Z,66.39
2017-04-16T02:41:08.355Z,66.11
2017-04-16T02:41:48.917Z,66.2
2017-04-16T02:42:29.505Z,66.3
2017-04-16T02:43:10.103Z,66.39
2017-04-16T02:43:50.717Z,66.67
2017-04-16T02:44:31.305Z,65.92
2017-04-16T02:45:11.906Z,66.11
2017-04-16T02:45:52.517Z,66.2
2017-04-16T02:46:33.287Z,66.01
2017-04-16T02:47:13.978Z,66.2
2017-04-16T02:47:54.554Z,66.11
2017-04-16T02:48:35.135Z,66.01
2017-04-16T02:49:15.717Z,66.01
2017-04-16T02:49:56.351Z,66.2
2017-04-16T02:50:36.925Z,66.49
2017-04-16T02:51:17.512Z,66.58
2017-04-16T02:51:58.101Z,66.49
2017-04-16T02:52:38.695Z,66.77
2017-04-16T02:53:19.308Z,66.49
2017-04-16T02:53:59.882Z,67.12
2017-04-16T02:54:40.500Z,66.96
2017-04-16T02:55:21.088Z,66.67
2017-04-16T02:56:01.727Z,67.12
2017-04-16T02:56:42.295Z,66.87
2017-04-16T02:57:22.937Z,67.12
2017-04-16T02:58:03.543Z,66.83
2017-04-16T02:58:44.132Z,66.74
2017-04-16T02:59:24.735Z,66.93
2017-04-16T03:00:05.325Z,66.93
2017-04-16T03:00:45.899Z,67.21
2017-04-16T03:01:26.509Z,67.12
2017-04-16T03:02:07.099Z,67.12
2017-04-16T03:02:47.687Z,67.69
2017-04-16T03:03:28.279Z,67.69
2017-04-16T03:04:08.840Z,67.5
2017-04-16T03:04:49.455Z,67.69
2017-04-16T03:05:30.023Z,67.5
2017-04-16T03:06:10.621Z,67.63
2017-04-16T03:06:51.216Z,67.69
2017-04-16T03:07:31.801Z,67.4
2017-04-16T03:08:12.432Z,67.21
2017-04-16T03:08:53.017Z,67.5
2017-04-16T03:09:33.621Z,67.02
2017-04-16T03:10:14.285Z,67.25
2017-04-16T03:10:54.859Z,67.34
2017-04-16T03:11:35.472Z,67.12
2017-04-16T03:12:16.088Z,67.12
2017-04-16T03:12:56.696Z,67.06
2017-04-16T03:13:37.292Z,67.12
2017-04-16T03:14:17.916Z,67.06
2017-04-16T03:14:58.568Z,67.4
2017-04-16T03:15:39.143Z,67.88
2017-04-16T03:16:19.757Z,67.5
2017-04-16T03:17:00.359Z,67.5
2017-04-16T03:17:40.955Z,67.31
2017-04-16T03:18:21.709Z,67.5
2017-04-16T03:19:02.321Z,67.5
2017-04-16T03:19:42.933Z,67.4
2017-04-16T03:20:23.757Z,67.4
2017-04-16T03:21:04.447Z,67.59
2017-04-16T03:21:45.030Z,67.4
2017-04-16T03:22:25.625Z,68.26
2017-04-16T03:23:06.204Z,68.44
2017-04-16T03:23:46.780Z,68.44
2017-04-16T03:24:27.353Z,68.26
2017-04-16T03:25:07.950Z,68.35
2017-04-16T03:25:48.514Z,67.82
2017-04-16T03:26:29.094Z,67.31
2017-04-16T03:27:09.716Z,67.91
2017-04-16T03:27:50.296Z,67.63
2017-04-16T03:28:30.869Z,67.69
2017-04-16T03:29:11.463Z,68.16
2017-04-16T03:29:52.045Z,67.97
2017-04-16T03:30:32.644Z,68.16
2017-04-16T03:31:13.223Z,68.16
2017-04-16T03:31:53.801Z,68.26
2017-04-16T03:32:34.406Z,68.07
2017-04-16T03:33:14.986Z,68.07
2017-04-16T03:33:55.567Z,67.88
2017-04-16T03:34:36.204Z,67.88
2017-04-16T03:35:16.840Z,68.01
2017-04-16T03:35:57.431Z,67.88
2017-04-16T03:36:38.008Z,67.97
2017-04-16T03:37:18.595Z,67.88
2017-04-16T03:37:59.188Z,68.01
2017-04-16T03:38:39.795Z,68.1
2017-04-16T03:39:20.395Z,68.01
2017-04-16T03:40:00.979Z,67.72
2017-04-16T03:40:41.596Z,67.5
2017-04-16T03:41:22.210Z,67.82
2017-04-16T03:42:02.809Z,67.63
2017-04-16T03:42:43.415Z,67.72
2017-04-16T03:43:24.007Z,68.29
2017-04-16T03:44:04.583Z,68.29
2017-04-16T03:44:45.228Z,68.58
2017-04-16T03:45:25.831Z,68.58
2017-04-16T03:46:06.432Z,68.48
2017-04-16T03:46:47.029Z,68.48
2017-04-16T03:47:27.614Z,68.73
2017-04-16T03:48:08.225Z,68.64
2017-04-16T03:48:48.793Z,68.77
2017-04-16T03:49:29.407Z,69.11
2017-04-16T03:50:10.042Z,69.24
2017-04-16T03:50:50.684Z,69.24
2017-04-16T03:51:31.246Z,69.15
2017-04-16T03:52:11.823Z,69.24
2017-04-16T03:52:52.402Z,69.34
2017-04-16T03:53:33.047Z,69.43
2017-04-16T03:54:13.664Z,69.43
2017-04-16T03:54:54.234Z,69.53
2017-04-16T03:55:34.808Z,69.62
2017-04-16T03:56:15.404Z,69.43
2017-04-16T03:56:56.001Z,69.71
2017-04-16T03:57:36.619Z,69.24
2017-04-16T03:58:17.197Z,69.34
2017-04-16T03:58:57.775Z,69.43
2017-04-16T03:59:38.400Z,69.68
2017-04-16T04:00:18.986Z,69.4
2017-04-16T04:00:59.574Z,69.87
2017-04-16T04:01:40.199Z,69.87
2017-04-16T04:02:20.849Z,69.71
2017-04-16T04:03:01.404Z,69.62
2017-04-16T04:03:41.997Z,69.71
2017-04-16T04:04:22.555Z,70.06
2017-04-16T04:05:03.134Z,69.91
2017-04-16T04:05:43.729Z,70.15
2017-04-16T04:06:24.343Z,70.44
2017-04-16T04:07:04.936Z,70.44
2017-04-16T04:07:45.528Z,69.91
2017-04-16T04:08:26.124Z,69.81
2017-04-16T04:09:06.709Z,69.96
2017-04-16T04:09:47.285Z,69.68
2017-04-16T04:10:27.891Z,70
2017-04-16T04:11:08.461Z,70.15
2017-04-16T04:11:49.057Z,69.87
2017-04-16T04:12:29.654Z,69.81
2017-04-16T04:13:10.235Z,69.91
2017-04-16T04:13:50.844Z,70.1
2017-04-16T04:14:31.395Z,70.57
2017-04-16T04:15:11.989Z,70.1
2017-04-16T04:15:52.596Z,69.81
2017-04-16T04:16:33.196Z,69.81
2017-04-16T04:17:13.796Z,69.91
2017-04-16T04:17:54.387Z,69.24
2017-04-16T04:18:34.971Z,69.71
2017-04-16T04:19:15.582Z,69.43
2017-04-16T04:19:56.174Z,69.15
2017-04-16T04:20:36.769Z,69.3
2017-04-16T04:21:17.363Z,69.34
2017-04-16T04:21:57.984Z,69.24
2017-04-16T04:22:38.547Z,69.34
2017-04-16T04:23:19.129Z,69.24
2017-04-16T04:23:59.704Z,69.59
2017-04-16T04:24:40.301Z,69.43
2017-04-16T04:25:20.922Z,69.15
2017-04-16T04:26:01.532Z,69.91
2017-04-16T04:26:42.134Z,69.91
2017-04-16T04:27:22.712Z,70.1
2017-04-16T04:28:03.307Z,70.15
2017-04-16T04:28:43.916Z,70
2017-04-16T04:29:24.530Z,70.19
2017-04-16T04:30:05.111Z,70.1
2017-04-16T04:30:45.702Z,70.19
2017-04-16T04:31:26.286Z,70.19
2017-04-16T04:32:06.908Z,70
2017-04-16T04:32:47.518Z,69.91
2017-04-16T04:33:28.132Z,69.24
2017-04-16T04:34:08.728Z,69.15
2017-04-16T04:34:49.329Z,69.24
2017-04-16T04:35:29.929Z,69.43
2017-04-16T04:36:10.537Z,69.24
2017-04-16T04:36:51.173Z,69.43
2017-04-16T04:37:31.788Z,69.43
2017-04-16T04:38:12.359Z,69.24
2017-04-16T04:38:52.946Z,70.19
2017-04-16T04:39:33.550Z,70.19
2017-04-16T04:40:14.152Z,69.43
2017-04-16T04:40:54.755Z,69.91
2017-04-16T04:41:35.363Z,70
2017-04-16T04:42:15.953Z,69.24
2017-04-16T04:42:56.539Z,69.05
2017-04-16T04:43:37.110Z,69.24
2017-04-16T04:44:17.699Z,69.43
2017-04-16T04:44:58.351Z,69.53
2017-04-16T04:45:38.961Z,69.62
2017-04-16T04:46:19.582Z,69.43
2017-04-16T04:47:00.230Z,69.15
2017-04-16T04:47:40.826Z,69.05
2017-04-16T04:48:21.429Z,69.05
2017-04-16T04:49:02.029Z,69.24
2017-04-16T04:49:42.633Z,69.34
2017-04-16T04:50:23.230Z,68.48
2017-04-16T04:51:03.793Z,68.67
2017-04-16T04:51:44.374Z,68.29
2017-04-16T04:52:24.989Z,68.58
2017-04-16T04:53:05.578Z,68.96
2017-04-16T04:53:46.193Z,68.58
2017-04-16T04:54:26.780Z,68.96
2017-04-16T04:55:07.402Z,68.58
2017-04-16T04:55:47.956Z,68.58
2017-04-16T04:56:28.571Z,68.77
2017-04-16T04:57:09.151Z,68.77
2017-04-16T04:57:49.755Z,68.77
2017-04-16T04:58:30.358Z,69.34
2017-04-16T04:59:10.947Z,69.34
2017-04-16T04:59:51.569Z,68.96
2017-04-16T05:00:32.152Z,69.34
2017-04-16T05:01:12.758Z,68.67
2017-04-16T05:01:53.400Z,68.67
2017-04-16T05:02:33.987Z,69.43
2017-04-16T05:03:14.627Z,69.05
2017-04-16T05:03:55.270Z,69.34
2017-04-16T05:04:35.914Z,69.05
2017-04-16T05:05:16.490Z,68.67
2017-04-16T05:05:57.097Z,68.67
2017-04-16T05:06:37.686Z,68.48
2017-04-16T05:07:18.264Z,68.39
2017-04-16T05:07:58.889Z,68.48
2017-04-16T05:08:39.529Z,68.67
2017-04-16T05:09:20.090Z,68.96
2017-04-16T05:10:00.680Z,69.24
2017-04-16T05:10:41.304Z,68.86
2017-04-16T05:11:21.891Z,69.15
2017-04-16T05:12:02.496Z,69.15
2017-04-16T05:12:43.090Z,69.34
2017-04-16T05:13:23.726Z,69.05
2017-04-16T05:14:04.380Z,69.34
2017-04-16T05:14:45.030Z,68.96
2017-04-16T05:15:25.589Z,69.05
2017-04-16T05:16:06.202Z,69.05
2017-04-16T05:16:46.787Z,68.96
2017-04-16T05:17:27.408Z,69.43
2017-04-16T05:18:07.984Z,69.34
2017-04-16T05:18:48.645Z,69.15
2017-04-16T05:19:29.229Z,68.96
2017-04-16T05:20:09.835Z,68.77
2017-04-16T05:20:50.405Z,68.48
2017-04-16T05:21:31.010Z,69.24
2017-04-16T05:22:11.594Z,68.86
2017-04-16T05:22:52.231Z,68.77
2017-04-16T05:23:32.799Z,68.58
2017-04-16T05:24:13.385Z,68.67
2017-04-16T05:24:53.972Z,68.96
2017-04-16T05:25:34.570Z,69.15
2017-04-16T05:26:15.210Z,69.05
2017-04-16T05:26:55.773Z,69.24
2017-04-16T05:27:36.420Z,69.34
2017-04-16T05:28:17.039Z,69.43
2017-04-16T05:28:57.630Z,69.15
2017-04-16T05:29:38.203Z,69.43
2017-04-16T05:30:18.815Z,69.15
2017-04-16T05:30:59.402Z,68.77
2017-04-16T05:31:39.983Z,68.86
2017-04-16T05:32:20.547Z,69.34
2017-04-16T05:33:01.131Z,69.24
2017-04-16T05:33:41.713Z,69.05
2017-04-16T05:34:22.312Z,69.05
2017-04-16T05:35:02.893Z,69.15
2017-04-16T05:35:43.502Z,68.96
2017-04-16T05:36:24.118Z,69.62
2017-04-16T05:37:04.697Z,69.53
2017-04-16T05:37:45.296Z,69.71
2017-04-16T05:38:25.908Z,69.43
2017-04-16T05:39:06.497Z,69.53
2017-04-16T05:39:47.126Z,69.81
2017-04-16T05:40:27.707Z,69.43
2017-04-16T05:41:08.347Z,69.24
2017-04-16T05:41:48.910Z,69.15
2017-04-16T05:42:29.491Z,69.34
2017-04-16T05:43:10.070Z,69.05
2017-04-16T05:43:50.640Z,69.34
2017-04-16T05:44:31.223Z,69.24
2017-04-16T05:45:11.832Z,69.53
2017-04-16T05:45:52.447Z,69.91
2017-04-16T05:46:33.058Z,69.34
2017-04-16T05:47:13.678Z,69.62
2017-04-16T05:47:54.266Z,69.43
2017-04-16T05:48:34.875Z,69.71
2017-04-16T05:49:15.462Z,69.15
2017-04-16T05:49:56.075Z,69.71
2017-04-16T05:50:36.686Z,69.15
2017-04-16T05:51:17.280Z,69.34
2017-04-16T05:51:57.883Z,69.34
2017-04-16T05:52:38.538Z,69.15
2017-04-16T05:53:19.148Z,69.34
2017-04-16T05:53:59.753Z,69.43
2017-04-16T05:54:40.371Z,68.77
2017-04-16T05:55:20.987Z,69.15
2017-04-16T05:56:01.587Z,69.15
2017-04-16T05:56:42.196Z,68.86
2017-04-16T05:57:22.800Z,68.86
2017-04-16T05:58:03.376Z,68.67
2017-04-16T05:58:44.030Z,68.48
2017-04-16T05:59:24.642Z,69.34
2017-04-16T06:00:05.213Z,69.24
2017-04-16T06:00:45.807Z,69.15
2017-04-16T06:01:26.423Z,69.53
2017-04-16T06:02:07.010Z,69.53
2017-04-16T06:02:47.621Z,69.24
2017-04-16T06:03:28.234Z,69.81
2017-04-16T06:04:08.826Z,69.91
2017-04-16T06:04:49.432Z,69.81
2017-04-16T06:05:30.025Z,69.62
2017-04-16T06:06:10.624Z,69.91
2017-04-16T06:06:51.213Z,69.91
2017-04-16T06:07:31.822Z,69.81
2017-04-16T06:08:12.417Z,69.91
2017-04-16T06:08:53.020Z,70
2017-04-16T06:09:33.600Z,69.34
2017-04-16T06:10:14.176Z,68.77
2017-04-16T06:10:54.791Z,68.86
2017-04-16T06:11:35.376Z,69.24
2017-04-16T06:12:16.022Z,69.34
2017-04-16T06:12:56.624Z,68.67
2017-04-16T06:13:37.310Z,68.58
2017-04-16T06:14:17.894Z,68.77
2017-04-16T06:14:58.545Z,68.1
2017-04-16T06:15:39.154Z,68.67
2017-04-16T06:16:19.764Z,68.48
2017-04-16T06:17:00.357Z,68.8
2017-04-16T06:17:40.948Z,68.8
2017-04-16T06:18:21.548Z,68.67
2017-04-16T06:19:02.137Z,68.52
2017-04-16T06:19:42.765Z,68.52
2017-04-16T06:20:23.339Z,68.33
2017-04-16T06:21:03.917Z,68.23
2017-04-16T06:21:44.525Z,67.85
2017-04-16T06:22:25.104Z,67.85
2017-04-16T06:23:05.689Z,67.66
2017-04-16T06:23:46.370Z,67.57
2017-04-16T06:24:27.004Z,67.66
2017-04-16T06:25:07.588Z,67.76
2017-04-16T06:25:48.218Z,67.57
2017-04-16T06:26:28.792Z,67.76
2017-04-16T06:27:09.366Z,67.38
2017-04-16T06:27:49.949Z,67.09
2017-04-16T06:28:30.534Z,67.28
2017-04-16T06:29:11.112Z,67.19
2017-04-16T06:29:51.727Z,67.19
2017-04-16T06:30:32.325Z,66.9
2017-04-16T06:31:12.918Z,67.09
2017-04-16T06:31:53.510Z,66.9
2017-04-16T06:32:34.119Z,67.28
2017-04-16T06:33:14.690Z,66.52
2017-04-16T06:33:55.300Z,66.05
2017-04-16T06:34:35.930Z,66.42
2017-04-16T06:35:16.490Z,66.24
2017-04-16T06:35:57.094Z,66.24
2017-04-16T06:36:37.687Z,66.52
2017-04-16T06:37:18.358Z,66.9
2017-04-16T06:37:58.958Z,67
2017-04-16T06:38:39.570Z,66.9
2017-04-16T06:39:20.157Z,66.61
2017-04-16T06:40:00.790Z,66.05
2017-04-16T06:40:41.390Z,66.14
2017-04-16T06:41:21.998Z,65.95
2017-04-16T06:42:02.579Z,66.24
2017-04-16T06:42:43.208Z,66.33
2017-04-16T06:43:23.826Z,66.24
2017-04-16T06:44:04.432Z,66.33
2017-04-16T06:44:45.036Z,66.24
2017-04-16T06:45:25.659Z,66.14
2017-04-16T06:46:06.264Z,66.24
2017-04-16T06:46:46.864Z,66.61
2017-04-16T06:47:27.485Z,66.71
2017-04-16T06:48:08.071Z,66.24
2017-04-16T06:48:48.684Z,66.05
2017-04-16T06:49:29.265Z,66.24
2017-04-16T06:50:09.875Z,66.14
2017-04-16T06:50:50.504Z,66.14
2017-04-16T06:51:31.137Z,65.86
2017-04-16T06:52:11.764Z,66.05
2017-04-16T06:52:52.325Z,65.67
2017-04-16T06:53:32.908Z,65.86
2017-04-16T06:54:13.494Z,65.86
2017-04-16T06:54:54.091Z,65.86
2017-04-16T06:55:34.681Z,65.6
2017-04-16T06:56:15.309Z,65.6
2017-04-16T06:56:55.907Z,65.51
2017-04-16T06:57:36.560Z,65.03
2017-04-16T06:58:17.152Z,65.09
2017-04-16T06:58:57.744Z,65.28
2017-04-16T06:59:38.331Z,65.86
2017-04-16T07:00:18.947Z,65.57
2017-04-16T07:00:59.534Z,66.24
2017-04-16T07:01:40.193Z,66.14
2017-04-16T07:02:20.775Z,66.52
2017-04-16T07:03:01.393Z,67.19
2017-04-16T07:03:42.075Z,67.76
2017-04-16T07:04:22.706Z,68.61
2017-04-16T07:05:03.267Z,68.9
2017-04-16T07:05:43.881Z,69.37
2017-04-16T07:06:24.492Z,69.94
2017-04-16T07:07:05.155Z,69.94
2017-04-16T07:07:45.792Z,70.42
2017-04-16T07:08:26.419Z,70.7
2017-04-16T07:09:07.004Z,71.08
2017-04-16T07:09:47.631Z,70.99
2017-04-16T07:10:28.213Z,71.08
2017-04-16T07:11:08.853Z,70.89
2017-04-16T07:11:49.478Z,71.18
2017-04-16T07:12:30.073Z,71.08
2017-04-16T07:13:10.716Z,70.99
2017-04-16T07:13:51.338Z,71.08
2017-04-16T07:14:31.978Z,70.99
2017-04-16T07:15:12.572Z,70.89
2017-04-16T07:15:53.219Z,70.42
2017-04-16T07:16:33.790Z,69.85
2017-04-16T07:17:14.396Z,70.51
2017-04-16T07:17:55.022Z,70.42
2017-04-16T07:18:35.631Z,69.85
2017-04-16T07:19:16.253Z,69.46
2017-04-16T07:19:56.850Z,69.94
2017-04-16T07:20:37.436Z,69.94
2017-04-16T07:21:18.047Z,70.13
2017-04-16T07:21:58.665Z,70.23
2017-04-16T07:22:39.246Z,70.32
2017-04-16T07:23:19.846Z,70.32
2017-04-16T07:24:00.407Z,70.51
2017-04-16T07:24:40.974Z,70.42
2017-04-16T07:25:21.621Z,70.89
2017-04-16T07:26:02.198Z,70.32
2017-04-16T07:26:42.787Z,70.89
2017-04-16T07:27:23.374Z,70.61
2017-04-16T07:28:03.942Z,71.08
2017-04-16T07:28:44.510Z,70.99
2017-04-16T07:29:25.077Z,70.51
2017-04-16T07:30:05.685Z,70.23
2017-04-16T07:30:46.341Z,70.23
2017-04-16T07:31:26.917Z,69.56
2017-04-16T07:32:07.544Z,69.27
2017-04-16T07:32:48.131Z,68.52
2017-04-16T07:33:28.748Z,68.13
2017-04-16T07:34:09.364Z,68.61
2017-04-16T07:34:49.989Z,68.61
2017-04-16T07:35:30.588Z,68.8
2017-04-16T07:36:11.196Z,69.37
2017-04-16T07:36:51.838Z,69.53
2017-04-16T07:37:32.390Z,69.62
2017-04-16T07:38:13.020Z,70.19
2017-04-16T07:38:53.626Z,70.48
2017-04-16T07:39:34.219Z,70.67
2017-04-16T07:40:14.815Z,70.86
2017-04-16T07:40:55.394Z,71.43
2017-04-16T07:41:35.991Z,71.62
2017-04-16T07:42:16.626Z,71.52
2017-04-16T07:42:57.230Z,71.43
2017-04-16T07:43:37.843Z,71.43
2017-04-16T07:44:18.513Z,71.43
2017-04-16T07:44:59.129Z,71.62
2017-04-16T07:45:39.713Z,71.81
2017-04-16T07:46:20.345Z,72.09
2017-04-16T07:47:01.000Z,71.9
2017-04-16T07:47:41.634Z,71.71
2017-04-16T07:48:22.264Z,72.28
2017-04-16T07:49:02.876Z,72.19
2017-04-16T07:49:43.466Z,71.81
2017-04-16T07:50:24.099Z,71.71
2017-04-16T07:51:04.673Z,72.19
2017-04-16T07:51:45.283Z,72.38
2017-04-16T07:52:25.956Z,72.38
2017-04-16T07:53:06.547Z,72.38
2017-04-16T07:53:47.195Z,71.81
2017-04-16T07:54:27.836Z,71.9
2017-04-16T07:55:08.493Z,71.62
2017-04-16T07:55:49.120Z,71.43
2017-04-16T07:56:29.786Z,71.14
2017-04-16T07:57:10.438Z,71.81
2017-04-16T07:57:51.031Z,72.38
2017-04-16T07:58:31.676Z,72.28
2017-04-16T07:59:12.330Z,72.19
2017-04-16T07:59:53.117Z,71.86
2017-04-16T08:00:33.662Z,72.15
2017-04-16T08:01:14.296Z,72.34
2017-04-16T08:01:55.021Z,72.63
2017-04-16T08:02:35.709Z,72.91
2017-04-16T08:03:16.304Z,73.29
2017-04-16T08:03:56.939Z,73.57
2017-04-16T08:04:37.715Z,73.48
2017-04-16T08:05:18.215Z,73.76
2017-04-16T08:05:58.930Z,73.76
2017-04-16T08:06:39.655Z,73.61
2017-04-16T08:07:20.493Z,73.71
2017-04-16T08:08:01.086Z,73.61
2017-04-16T08:08:41.684Z,73.42
2017-04-16T08:09:22.278Z,73.8
2017-04-16T08:10:02.901Z,73.8
2017-04-16T08:10:43.748Z,73.71
2017-04-16T08:11:24.414Z,73.42
2017-04-16T08:12:05.125Z,72.47
2017-04-16T08:12:45.863Z,72.09
2017-04-16T08:13:26.678Z,72.28
2017-04-16T08:14:07.283Z,72
2017-04-16T08:14:47.953Z,72.19
2017-04-16T08:15:28.537Z,71.9
2017-04-16T08:16:09.133Z,71.08
2017-04-16T08:16:49.795Z,70.7
2017-04-16T08:17:30.519Z,70.32
2017-04-16T08:18:11.142Z,70.89
2017-04-16T08:18:51.739Z,70.7
2017-04-16T08:19:32.342Z,71.46
2017-04-16T08:20:13.063Z,69.41
2017-04-16T08:20:53.620Z,68.74
2017-04-16T08:21:34.401Z,68.65
2017-04-16T08:22:15.038Z,68.65
2017-04-16T08:22:55.678Z,68.84
2017-04-16T08:23:36.317Z,68.84
2017-04-16T08:24:17.001Z,68.11
2017-04-16T08:24:57.634Z,67.54
2017-04-16T08:25:38.258Z,67.07
2017-04-16T08:26:18.875Z,67.03
2017-04-16T08:26:59.541Z,65.73
2017-04-16T08:27:40.254Z,64.4
2017-04-16T08:28:20.875Z,64.11
2017-04-16T08:29:01.539Z,62.75
2017-04-16T08:29:42.149Z,62.94
2017-04-16T08:30:22.841Z,63.32
2017-04-16T08:31:03.411Z,63.13
2017-04-16T08:31:44.074Z,63.04
2017-04-16T08:32:24.659Z,63.13
2017-04-16T08:33:05.322Z,63.32
2017-04-16T08:33:45.965Z,63.32
2017-04-16T08:34:26.589Z,63.23
2017-04-16T08:35:07.222Z,62.65
2017-04-16T08:35:47.935Z,63.13
2017-04-16T08:36:28.566Z,63.13
2017-04-16T08:37:09.264Z,62.37
2017-04-16T08:37:49.905Z,62.08
2017-04-16T08:38:30.570Z,62.27
2017-04-16T08:39:11.234Z,62.56
2017-04-16T08:39:51.908Z,62.75
2017-04-16T08:40:32.541Z,63.23
2017-04-16T08:41:13.161Z,63.99
2017-04-16T08:41:53.746Z,63.89
2017-04-16T08:42:34.411Z,62.75
2017-04-16T08:43:15.004Z,63.04
2017-04-16T08:43:55.642Z,62.69
2017-04-16T08:44:36.254Z,62.97